sensor_id;sensor_type;location;lat;lon;timestamp;P1;durP1;ratioP1;P2;durP2;ratioP2
9438;SDS011;5176;42.622;25.386;2024-01-11T00:00:39;19.40;;;10.33;;
9438;SDS011;5176;42.622;25.386;2024-01-11T00:03:06;14.87;;;9.53;;
9438;SDS011;5176;42.622;25.386;2024-01-11T00:05:34;15.23;;;8.30;;
9438;SDS011;5176;42.622;25.386;2024-01-11T00:08:03;13.53;;;8.53;;
9438;SDS011;5176;42.622;25.386;2024-01-11T00:10:31;14.40;;;8.53;;
9438;SDS011;5176;42.622;25.386;2024-01-11T00:12:59;12.90;;;8.00;;
9438;SDS011;5176;42.622;25.386;2024-01-11T00:15:26;14.80;;;9.10;;
9438;SDS011;5176;42.622;25.386;2024-01-11T00:17:54;13.10;;;8.50;;
9438;SDS011;5176;42.622;25.386;2024-01-11T00:20:21;13.73;;;9.13;;
9438;SDS011;5176;42.622;25.386;2024-01-11T00:22:49;14.90;;;8.33;;
9438;SDS011;5176;42.622;25.386;2024-01-11T00:25:18;12.13;;;8.20;;
9438;SDS011;5176;42.622;25.386;2024-01-11T00:27:45;13.70;;;7.87;;
9438;SDS011;5176;42.622;25.386;2024-01-11T00:30:13;11.80;;;8.40;;
9438;SDS011;5176;42.622;25.386;2024-01-11T00:32:40;13.90;;;9.10;;
9438;SDS011;5176;42.622;25.386;2024-01-11T00:35:08;10.50;;;8.17;;
9438;SDS011;5176;42.622;25.386;2024-01-11T00:37:35;12.40;;;8.07;;
9438;SDS011;5176;42.622;25.386;2024-01-11T00:40:03;10.37;;;7.93;;
9438;SDS011;5176;42.622;25.386;2024-01-11T00:42:33;15.70;;;9.20;;
9438;SDS011;5176;42.622;25.386;2024-01-11T00:45:01;15.63;;;9.90;;
9438;SDS011;5176;42.622;25.386;2024-01-11T00:47:28;14.73;;;10.00;;
9438;SDS011;5176;42.622;25.386;2024-01-11T00:49:56;15.57;;;10.60;;
9438;SDS011;5176;42.622;25.386;2024-01-11T00:52:24;20.97;;;10.77;;
9438;SDS011;5176;42.622;25.386;2024-01-11T00:54:51;19.20;;;11.13;;
9438;SDS011;5176;42.622;25.386;2024-01-11T00:57:19;14.20;;;8.87;;
9438;SDS011;5176;42.622;25.386;2024-01-11T00:59:48;14.50;;;9.90;;
9438;SDS011;5176;42.622;25.386;2024-01-11T01:02:15;18.63;;;10.97;;
9438;SDS011;5176;42.622;25.386;2024-01-11T01:04:43;16.03;;;9.60;;
9438;SDS011;5176;42.622;25.386;2024-01-11T01:07:10;14.47;;;9.63;;
9438;SDS011;5176;42.622;25.386;2024-01-11T01:09:38;19.30;;;11.80;;
9438;SDS011;5176;42.622;25.386;2024-01-11T01:12:05;21.17;;;12.10;;
9438;SDS011;5176;42.622;25.386;2024-01-11T01:14:33;24.67;;;11.73;;
9438;SDS011;5176;42.622;25.386;2024-01-11T01:17:02;18.63;;;10.90;;
9438;SDS011;5176;42.622;25.386;2024-01-11T01:19:30;19.73;;;11.53;;
9438;SDS011;5176;42.622;25.386;2024-01-11T01:21:58;18.50;;;11.03;;
9438;SDS011;5176;42.622;25.386;2024-01-11T01:24:26;16.33;;;10.73;;
9438;SDS011;5176;42.622;25.386;2024-01-11T01:26:53;18.40;;;11.07;;
9438;SDS011;5176;42.622;25.386;2024-01-11T01:29:21;15.10;;;10.80;;
9438;SDS011;5176;42.622;25.386;2024-01-11T01:31:48;16.77;;;10.57;;
9438;SDS011;5176;42.622;25.386;2024-01-11T01:34:17;15.60;;;11.03;;
9438;SDS011;5176;42.622;25.386;2024-01-11T01:36:45;17.67;;;12.47;;
9438;SDS011;5176;42.622;25.386;2024-01-11T01:39:13;16.40;;;11.53;;
9438;SDS011;5176;42.622;25.386;2024-01-11T01:41:41;18.53;;;12.13;;
9438;SDS011;5176;42.622;25.386;2024-01-11T01:44:08;17.03;;;11.23;;
9438;SDS011;5176;42.622;25.386;2024-01-11T01:46:36;18.23;;;11.03;;
9438;SDS011;5176;42.622;25.386;2024-01-11T01:49:04;20.73;;;12.07;;
9438;SDS011;5176;42.622;25.386;2024-01-11T01:51:34;13.43;;;9.97;;
9438;SDS011;5176;42.622;25.386;2024-01-11T01:54:01;13.47;;;8.93;;
9438;SDS011;5176;42.622;25.386;2024-01-11T01:56:30;17.73;;;10.07;;
9438;SDS011;5176;42.622;25.386;2024-01-11T01:58:59;12.63;;;8.17;;
9438;SDS011;5176;42.622;25.386;2024-01-11T02:01:28;16.37;;;10.10;;
9438;SDS011;5176;42.622;25.386;2024-01-11T02:03:56;17.07;;;9.43;;
9438;SDS011;5176;42.622;25.386;2024-01-11T02:06:25;14.97;;;9.83;;
9438;SDS011;5176;42.622;25.386;2024-01-11T02:08:58;13.63;;;8.73;;
9438;SDS011;5176;42.622;25.386;2024-01-11T02:11:28;18.77;;;9.90;;
9438;SDS011;5176;42.622;25.386;2024-01-11T02:13:56;17.27;;;10.60;;
9438;SDS011;5176;42.622;25.386;2024-01-11T02:16:24;13.13;;;9.83;;
9438;SDS011;5176;42.622;25.386;2024-01-11T02:18:51;18.47;;;10.27;;
9438;SDS011;5176;42.622;25.386;2024-01-11T02:21:19;16.93;;;10.63;;
9438;SDS011;5176;42.622;25.386;2024-01-11T02:23:59;16.23;;;9.83;;
9438;SDS011;5176;42.622;25.386;2024-01-11T02:26:30;12.13;;;9.30;;
9438;SDS011;5176;42.622;25.386;2024-01-11T02:28:57;14.73;;;8.07;;
9438;SDS011;5176;42.622;25.386;2024-01-11T02:31:25;16.40;;;8.60;;
9438;SDS011;5176;42.622;25.386;2024-01-11T02:33:52;11.10;;;7.13;;
9438;SDS011;5176;42.622;25.386;2024-01-11T02:36:21;10.27;;;7.20;;
9438;SDS011;5176;42.622;25.386;2024-01-11T02:38:48;10.63;;;7.17;;
9438;SDS011;5176;42.622;25.386;2024-01-11T02:41:20;10.60;;;6.73;;
9438;SDS011;5176;42.622;25.386;2024-01-11T02:43:48;10.97;;;7.10;;
9438;SDS011;5176;42.622;25.386;2024-01-11T02:46:16;12.03;;;7.50;;
9438;SDS011;5176;42.622;25.386;2024-01-11T02:48:44;11.30;;;7.23;;
9438;SDS011;5176;42.622;25.386;2024-01-11T02:51:11;11.53;;;7.77;;
9438;SDS011;5176;42.622;25.386;2024-01-11T02:53:39;10.73;;;7.70;;
9438;SDS011;5176;42.622;25.386;2024-01-11T02:56:06;12.97;;;8.73;;
9438;SDS011;5176;42.622;25.386;2024-01-11T02:58:35;12.63;;;8.80;;
9438;SDS011;5176;42.622;25.386;2024-01-11T03:01:03;13.50;;;8.60;;
9438;SDS011;5176;42.622;25.386;2024-01-11T03:03:31;14.77;;;9.67;;
9438;SDS011;5176;42.622;25.386;2024-01-11T03:05:58;14.70;;;9.53;;
9438;SDS011;5176;42.622;25.386;2024-01-11T03:08:26;13.23;;;9.33;;
9438;SDS011;5176;42.622;25.386;2024-01-11T03:10:54;12.37;;;8.27;;
9438;SDS011;5176;42.622;25.386;2024-01-11T03:13:22;12.40;;;8.20;;
9438;SDS011;5176;42.622;25.386;2024-01-11T03:15:52;14.40;;;9.20;;
9438;SDS011;5176;42.622;25.386;2024-01-11T03:18:19;13.63;;;7.77;;
9438;SDS011;5176;42.622;25.386;2024-01-11T03:20:47;11.60;;;7.43;;
9438;SDS011;5176;42.622;25.386;2024-01-11T03:23:14;10.37;;;7.50;;
9438;SDS011;5176;42.622;25.386;2024-01-11T03:25:42;9.17;;;6.60;;
9438;SDS011;5176;42.622;25.386;2024-01-11T03:28:09;11.20;;;6.87;;
9438;SDS011;5176;42.622;25.386;2024-01-11T03:30:36;11.17;;;7.20;;
9438;SDS011;5176;42.622;25.386;2024-01-11T03:33:06;10.50;;;6.93;;
9438;SDS011;5176;42.622;25.386;2024-01-11T03:35:33;11.20;;;7.03;;
9438;SDS011;5176;42.622;25.386;2024-01-11T03:38:04;10.17;;;7.47;;
9438;SDS011;5176;42.622;25.386;2024-01-11T03:40:31;9.77;;;6.90;;
9438;SDS011;5176;42.622;25.386;2024-01-11T03:42:59;9.93;;;7.20;;
9438;SDS011;5176;42.622;25.386;2024-01-11T03:45:26;13.83;;;8.63;;
9438;SDS011;5176;42.622;25.386;2024-01-11T03:47:54;13.13;;;7.37;;
9438;SDS011;5176;42.622;25.386;2024-01-11T03:50:23;10.77;;;7.70;;
9438;SDS011;5176;42.622;25.386;2024-01-11T03:52:51;11.50;;;7.47;;
9438;SDS011;5176;42.622;25.386;2024-01-11T03:55:18;9.73;;;6.93;;
9438;SDS011;5176;42.622;25.386;2024-01-11T03:57:46;12.20;;;6.83;;
9438;SDS011;5176;42.622;25.386;2024-01-11T04:00:14;11.73;;;7.87;;
9438;SDS011;5176;42.622;25.386;2024-01-11T04:02:42;15.90;;;9.93;;
9438;SDS011;5176;42.622;25.386;2024-01-11T04:05:09;14.60;;;9.13;;
9438;SDS011;5176;42.622;25.386;2024-01-11T04:07:38;13.10;;;8.80;;
9438;SDS011;5176;42.622;25.386;2024-01-11T04:10:06;20.27;;;9.77;;
9438;SDS011;5176;42.622;25.386;2024-01-11T04:12:35;15.27;;;10.43;;
9438;SDS011;5176;42.622;25.386;2024-01-11T04:15:03;18.23;;;11.80;;
9438;SDS011;5176;42.622;25.386;2024-01-11T04:17:31;14.37;;;10.17;;
9438;SDS011;5176;42.622;25.386;2024-01-11T04:19:58;18.77;;;14.20;;
9438;SDS011;5176;42.622;25.386;2024-01-11T04:22:27;19.60;;;15.00;;
9438;SDS011;5176;42.622;25.386;2024-01-11T04:24:57;18.63;;;14.90;;
9438;SDS011;5176;42.622;25.386;2024-01-11T04:27:25;18.57;;;13.33;;
9438;SDS011;5176;42.622;25.386;2024-01-11T04:29:52;19.73;;;12.70;;
9438;SDS011;5176;42.622;25.386;2024-01-11T04:32:19;20.50;;;12.87;;
9438;SDS011;5176;42.622;25.386;2024-01-11T04:34:47;17.73;;;10.67;;
9438;SDS011;5176;42.622;25.386;2024-01-11T04:37:14;16.17;;;10.37;;
9438;SDS011;5176;42.622;25.386;2024-01-11T04:39:43;17.77;;;11.50;;
9438;SDS011;5176;42.622;25.386;2024-01-11T04:42:12;17.83;;;11.10;;
9438;SDS011;5176;42.622;25.386;2024-01-11T04:44:39;18.00;;;12.13;;
9438;SDS011;5176;42.622;25.386;2024-01-11T04:47:07;16.93;;;11.10;;
9438;SDS011;5176;42.622;25.386;2024-01-11T04:49:35;17.50;;;11.33;;
9438;SDS011;5176;42.622;25.386;2024-01-11T04:52:02;18.80;;;10.83;;
9438;SDS011;5176;42.622;25.386;2024-01-11T04:54:30;16.83;;;10.17;;
9438;SDS011;5176;42.622;25.386;2024-01-11T04:56:58;17.07;;;11.27;;
9438;SDS011;5176;42.622;25.386;2024-01-11T04:59:25;15.77;;;10.10;;
9438;SDS011;5176;42.622;25.386;2024-01-11T05:01:53;16.20;;;9.80;;
9438;SDS011;5176;42.622;25.386;2024-01-11T05:04:21;15.73;;;9.17;;
9438;SDS011;5176;42.622;25.386;2024-01-11T05:06:50;12.93;;;8.70;;
9438;SDS011;5176;42.622;25.386;2024-01-11T05:09:18;13.47;;;8.83;;
9438;SDS011;5176;42.622;25.386;2024-01-11T05:11:45;13.27;;;7.67;;
9438;SDS011;5176;42.622;25.386;2024-01-11T05:14:13;11.60;;;8.63;;
9438;SDS011;5176;42.622;25.386;2024-01-11T05:16:42;15.40;;;8.60;;
9438;SDS011;5176;42.622;25.386;2024-01-11T05:19:10;12.70;;;8.43;;
9438;SDS011;5176;42.622;25.386;2024-01-11T05:21:37;15.23;;;8.90;;
9438;SDS011;5176;42.622;25.386;2024-01-11T05:24:05;15.10;;;9.37;;
9438;SDS011;5176;42.622;25.386;2024-01-11T05:26:32;15.07;;;8.77;;
9438;SDS011;5176;42.622;25.386;2024-01-11T05:29:00;12.97;;;7.77;;
9438;SDS011;5176;42.622;25.386;2024-01-11T05:31:29;14.60;;;9.23;;
9438;SDS011;5176;42.622;25.386;2024-01-11T05:33:58;18.37;;;10.97;;
9438;SDS011;5176;42.622;25.386;2024-01-11T05:36:26;16.13;;;9.83;;
9438;SDS011;5176;42.622;25.386;2024-01-11T05:38:53;19.03;;;11.67;;
9438;SDS011;5176;42.622;25.386;2024-01-11T05:41:21;24.10;;;11.93;;
9438;SDS011;5176;42.622;25.386;2024-01-11T05:43:48;21.13;;;11.60;;
9438;SDS011;5176;42.622;25.386;2024-01-11T05:46:16;15.03;;;10.03;;
9438;SDS011;5176;42.622;25.386;2024-01-11T05:48:43;15.80;;;10.00;;
9438;SDS011;5176;42.622;25.386;2024-01-11T05:51:12;15.50;;;9.93;;
9438;SDS011;5176;42.622;25.386;2024-01-11T05:53:40;12.43;;;9.40;;
9438;SDS011;5176;42.622;25.386;2024-01-11T05:56:08;15.97;;;9.33;;
9438;SDS011;5176;42.622;25.386;2024-01-11T05:58:36;17.40;;;9.77;;
9438;SDS011;5176;42.622;25.386;2024-01-11T06:01:03;21.40;;;10.87;;
9438;SDS011;5176;42.622;25.386;2024-01-11T06:03:31;20.77;;;12.03;;
9438;SDS011;5176;42.622;25.386;2024-01-11T06:05:59;18.17;;;10.90;;
9438;SDS011;5176;42.622;25.386;2024-01-11T06:08:30;18.57;;;11.10;;
9438;SDS011;5176;42.622;25.386;2024-01-11T06:10:58;35.93;;;18.83;;
9438;SDS011;5176;42.622;25.386;2024-01-11T06:13:25;26.37;;;16.33;;
9438;SDS011;5176;42.622;25.386;2024-01-11T06:15:53;35.57;;;19.40;;
9438;SDS011;5176;42.622;25.386;2024-01-11T06:18:20;27.40;;;17.50;;
9438;SDS011;5176;42.622;25.386;2024-01-11T06:20:48;62.57;;;35.07;;
9438;SDS011;5176;42.622;25.386;2024-01-11T06:23:15;33.77;;;20.87;;
9438;SDS011;5176;42.622;25.386;2024-01-11T06:25:46;33.30;;;16.13;;
9438;SDS011;5176;42.622;25.386;2024-01-11T06:28:17;28.43;;;16.80;;
9438;SDS011;5176;42.622;25.386;2024-01-11T06:30:45;23.93;;;14.93;;
9438;SDS011;5176;42.622;25.386;2024-01-11T06:33:12;35.03;;;22.07;;
9438;SDS011;5176;42.622;25.386;2024-01-11T06:35:40;21.97;;;14.87;;
9438;SDS011;5176;42.622;25.386;2024-01-11T06:38:07;23.60;;;13.27;;
9438;SDS011;5176;42.622;25.386;2024-01-11T06:40:35;16.10;;;9.60;;
9438;SDS011;5176;42.622;25.386;2024-01-11T06:43:04;13.33;;;8.73;;
9438;SDS011;5176;42.622;25.386;2024-01-11T06:45:32;15.30;;;9.33;;
9438;SDS011;5176;42.622;25.386;2024-01-11T06:48:00;13.77;;;9.00;;
9438;SDS011;5176;42.622;25.386;2024-01-11T06:50:28;14.67;;;9.93;;
9438;SDS011;5176;42.622;25.386;2024-01-11T06:52:55;15.20;;;9.53;;
9438;SDS011;5176;42.622;25.386;2024-01-11T06:55:23;14.53;;;9.93;;
9438;SDS011;5176;42.622;25.386;2024-01-11T06:57:50;15.10;;;10.13;;
9438;SDS011;5176;42.622;25.386;2024-01-11T07:00:19;13.23;;;8.10;;
9438;SDS011;5176;42.622;25.386;2024-01-11T07:02:48;14.87;;;9.00;;
9438;SDS011;5176;42.622;25.386;2024-01-11T07:05:15;14.53;;;9.03;;
9438;SDS011;5176;42.622;25.386;2024-01-11T07:07:43;17.23;;;10.90;;
9438;SDS011;5176;42.622;25.386;2024-01-11T07:10:11;24.33;;;14.97;;
9438;SDS011;5176;42.622;25.386;2024-01-11T07:12:38;15.53;;;11.03;;
9438;SDS011;5176;42.622;25.386;2024-01-11T07:15:08;20.83;;;12.63;;
9438;SDS011;5176;42.622;25.386;2024-01-11T07:17:38;19.03;;;12.40;;
9438;SDS011;5176;42.622;25.386;2024-01-11T07:20:06;15.77;;;10.17;;
9438;SDS011;5176;42.622;25.386;2024-01-11T07:22:35;14.67;;;8.90;;
9438;SDS011;5176;42.622;25.386;2024-01-11T07:25:03;8.83;;;5.90;;
9438;SDS011;5176;42.622;25.386;2024-01-11T07:27:31;8.90;;;6.10;;
9438;SDS011;5176;42.622;25.386;2024-01-11T07:29:58;21.37;;;11.33;;
9438;SDS011;5176;42.622;25.386;2024-01-11T07:32:27;26.20;;;14.83;;
9438;SDS011;5176;42.622;25.386;2024-01-11T07:34:56;22.40;;;10.33;;
9438;SDS011;5176;42.622;25.386;2024-01-11T07:37:24;11.83;;;8.37;;
9438;SDS011;5176;42.622;25.386;2024-01-11T07:39:53;10.27;;;7.60;;
9438;SDS011;5176;42.622;25.386;2024-01-11T07:42:21;10.27;;;7.60;;
9438;SDS011;5176;42.622;25.386;2024-01-11T07:44:48;11.40;;;7.37;;
9438;SDS011;5176;42.622;25.386;2024-01-11T07:47:16;11.77;;;7.73;;
9438;SDS011;5176;42.622;25.386;2024-01-11T07:49:44;9.53;;;7.13;;
9438;SDS011;5176;42.622;25.386;2024-01-11T07:52:13;11.00;;;7.43;;
9438;SDS011;5176;42.622;25.386;2024-01-11T07:54:40;11.23;;;7.83;;
9438;SDS011;5176;42.622;25.386;2024-01-11T07:57:07;12.87;;;8.77;;
9438;SDS011;5176;42.622;25.386;2024-01-11T07:59:35;14.10;;;9.60;;
9438;SDS011;5176;42.622;25.386;2024-01-11T08:02:03;19.03;;;10.90;;
9438;SDS011;5176;42.622;25.386;2024-01-11T08:04:31;12.53;;;9.70;;
9438;SDS011;5176;42.622;25.386;2024-01-11T08:06:58;16.47;;;10.30;;
9438;SDS011;5176;42.622;25.386;2024-01-11T08:09:28;14.47;;;10.13;;
9438;SDS011;5176;42.622;25.386;2024-01-11T08:11:56;20.30;;;11.70;;
9438;SDS011;5176;42.622;25.386;2024-01-11T08:14:24;14.20;;;9.30;;
9438;SDS011;5176;42.622;25.386;2024-01-11T08:16:51;9.87;;;7.33;;
9438;SDS011;5176;42.622;25.386;2024-01-11T08:19:19;12.53;;;8.03;;
9438;SDS011;5176;42.622;25.386;2024-01-11T08:21:47;12.63;;;7.17;;
9438;SDS011;5176;42.622;25.386;2024-01-11T08:24:14;7.80;;;6.50;;
9438;SDS011;5176;42.622;25.386;2024-01-11T08:26:44;10.93;;;7.37;;
9438;SDS011;5176;42.622;25.386;2024-01-11T08:29:13;17.33;;;7.70;;
9438;SDS011;5176;42.622;25.386;2024-01-11T08:31:40;10.80;;;7.77;;
9438;SDS011;5176;42.622;25.386;2024-01-11T08:34:09;12.53;;;8.93;;
9438;SDS011;5176;42.622;25.386;2024-01-11T08:36:37;9.47;;;7.50;;
9438;SDS011;5176;42.622;25.386;2024-01-11T08:39:05;14.10;;;8.97;;
9438;SDS011;5176;42.622;25.386;2024-01-11T08:41:32;14.50;;;8.90;;
9438;SDS011;5176;42.622;25.386;2024-01-11T08:44:02;12.47;;;8.63;;
9438;SDS011;5176;42.622;25.386;2024-01-11T08:46:31;10.50;;;7.87;;
9438;SDS011;5176;42.622;25.386;2024-01-11T08:48:58;13.50;;;8.57;;
9438;SDS011;5176;42.622;25.386;2024-01-11T08:51:28;16.90;;;10.10;;
9438;SDS011;5176;42.622;25.386;2024-01-11T08:53:56;16.77;;;11.33;;
9438;SDS011;5176;42.622;25.386;2024-01-11T08:56:23;13.30;;;9.80;;
9438;SDS011;5176;42.622;25.386;2024-01-11T08:58:51;20.70;;;12.20;;
9438;SDS011;5176;42.622;25.386;2024-01-11T09:01:20;15.37;;;9.87;;
9438;SDS011;5176;42.622;25.386;2024-01-11T09:03:47;11.70;;;8.17;;
9438;SDS011;5176;42.622;25.386;2024-01-11T09:06:15;11.47;;;8.27;;
9438;SDS011;5176;42.622;25.386;2024-01-11T09:08:42;14.97;;;9.13;;
9438;SDS011;5176;42.622;25.386;2024-01-11T09:11:10;8.07;;;6.17;;
9438;SDS011;5176;42.622;25.386;2024-01-11T09:13:38;10.50;;;7.93;;
9438;SDS011;5176;42.622;25.386;2024-01-11T09:16:06;7.33;;;6.00;;
9438;SDS011;5176;42.622;25.386;2024-01-11T09:18:36;8.90;;;6.67;;
9438;SDS011;5176;42.622;25.386;2024-01-11T09:21:04;16.13;;;8.60;;
9438;SDS011;5176;42.622;25.386;2024-01-11T09:23:31;14.17;;;9.50;;
9438;SDS011;5176;42.622;25.386;2024-01-11T09:25:59;11.30;;;6.93;;
9438;SDS011;5176;42.622;25.386;2024-01-11T09:28:27;13.37;;;6.77;;
9438;SDS011;5176;42.622;25.386;2024-01-11T09:30:54;7.97;;;5.93;;
9438;SDS011;5176;42.622;25.386;2024-01-11T09:33:25;7.10;;;6.10;;
9438;SDS011;5176;42.622;25.386;2024-01-11T09:35:55;9.97;;;7.00;;
9438;SDS011;5176;42.622;25.386;2024-01-11T09:38:22;8.50;;;6.70;;
9438;SDS011;5176;42.622;25.386;2024-01-11T09:40:51;8.23;;;5.60;;
9438;SDS011;5176;42.622;25.386;2024-01-11T09:43:29;10.87;;;5.43;;
9438;SDS011;5176;42.622;25.386;2024-01-11T09:45:58;6.27;;;4.67;;
9438;SDS011;5176;42.622;25.386;2024-01-11T09:48:29;5.33;;;3.67;;
9438;SDS011;5176;42.622;25.386;2024-01-11T09:51:00;7.57;;;4.87;;
9438;SDS011;5176;42.622;25.386;2024-01-11T09:53:29;6.30;;;4.90;;
9438;SDS011;5176;42.622;25.386;2024-01-11T09:55:59;8.40;;;5.60;;
9438;SDS011;5176;42.622;25.386;2024-01-11T09:58:26;6.53;;;5.43;;
9438;SDS011;5176;42.622;25.386;2024-01-11T10:00:55;6.80;;;5.07;;
9438;SDS011;5176;42.622;25.386;2024-01-11T10:03:24;4.63;;;3.60;;
9438;SDS011;5176;42.622;25.386;2024-01-11T10:05:54;4.17;;;3.70;;
9438;SDS011;5176;42.622;25.386;2024-01-11T10:08:26;6.20;;;4.50;;
9438;SDS011;5176;42.622;25.386;2024-01-11T10:10:54;6.90;;;5.07;;
9438;SDS011;5176;42.622;25.386;2024-01-11T10:13:25;6.17;;;4.87;;
9438;SDS011;5176;42.622;25.386;2024-01-11T10:16:03;7.10;;;6.10;;
9438;SDS011;5176;42.622;25.386;2024-01-11T10:18:32;15.50;;;10.50;;
9438;SDS011;5176;42.622;25.386;2024-01-11T10:21:00;13.80;;;9.20;;
9438;SDS011;5176;42.622;25.386;2024-01-11T10:23:29;6.23;;;5.17;;
9438;SDS011;5176;42.622;25.386;2024-01-11T10:25:59;3.33;;;2.90;;
9438;SDS011;5176;42.622;25.386;2024-01-11T10:28:27;3.07;;;2.60;;
9438;SDS011;5176;42.622;25.386;2024-01-11T10:30:56;4.67;;;3.67;;
9438;SDS011;5176;42.622;25.386;2024-01-11T10:33:24;4.00;;;3.03;;
9438;SDS011;5176;42.622;25.386;2024-01-11T10:35:51;11.37;;;5.70;;
9438;SDS011;5176;42.622;25.386;2024-01-11T10:38:18;10.90;;;6.37;;
9438;SDS011;5176;42.622;25.386;2024-01-11T10:40:50;3.67;;;2.40;;
9438;SDS011;5176;42.622;25.386;2024-01-11T10:43:21;8.80;;;5.07;;
9438;SDS011;5176;42.622;25.386;2024-01-11T10:45:48;5.43;;;4.10;;
9438;SDS011;5176;42.622;25.386;2024-01-11T10:48:19;10.70;;;6.10;;
9438;SDS011;5176;42.622;25.386;2024-01-11T10:50:49;7.53;;;4.60;;
9438;SDS011;5176;42.622;25.386;2024-01-11T10:53:25;4.43;;;3.13;;
9438;SDS011;5176;42.622;25.386;2024-01-11T10:56:00;4.03;;;2.83;;
9438;SDS011;5176;42.622;25.386;2024-01-11T10:58:30;4.13;;;3.10;;
9438;SDS011;5176;42.622;25.386;2024-01-11T11:00:58;10.03;;;5.73;;
9438;SDS011;5176;42.622;25.386;2024-01-11T11:03:27;12.27;;;6.80;;
9438;SDS011;5176;42.622;25.386;2024-01-11T11:05:57;2.67;;;2.43;;
9438;SDS011;5176;42.622;25.386;2024-01-11T11:08:25;3.17;;;2.93;;
9438;SDS011;5176;42.622;25.386;2024-01-11T11:10:54;2.40;;;2.20;;
9438;SDS011;5176;42.622;25.386;2024-01-11T11:13:25;5.47;;;2.67;;
9438;SDS011;5176;42.622;25.386;2024-01-11T11:15:53;3.37;;;2.30;;
9438;SDS011;5176;42.622;25.386;2024-01-11T11:18:23;2.93;;;2.43;;
9438;SDS011;5176;42.622;25.386;2024-01-11T11:20:51;2.83;;;2.20;;
9438;SDS011;5176;42.622;25.386;2024-01-11T11:23:19;3.70;;;2.97;;
9438;SDS011;5176;42.622;25.386;2024-01-11T11:25:48;4.63;;;3.20;;
9438;SDS011;5176;42.622;25.386;2024-01-11T11:28:16;3.80;;;3.17;;
9438;SDS011;5176;42.622;25.386;2024-01-11T11:30:47;4.77;;;2.87;;
9438;SDS011;5176;42.622;25.386;2024-01-11T11:33:17;4.63;;;3.10;;
9438;SDS011;5176;42.622;25.386;2024-01-11T11:35:47;9.00;;;5.67;;
9438;SDS011;5176;42.622;25.386;2024-01-11T11:38:18;8.23;;;4.90;;
9438;SDS011;5176;42.622;25.386;2024-01-11T11:40:46;6.47;;;4.67;;
9438;SDS011;5176;42.622;25.386;2024-01-11T11:43:15;3.90;;;3.13;;
9438;SDS011;5176;42.622;25.386;2024-01-11T11:45:43;4.17;;;3.17;;
9438;SDS011;5176;42.622;25.386;2024-01-11T11:51:21;5.00;;;3.40;;
9438;SDS011;5176;42.622;25.386;2024-01-11T11:53:49;5.90;;;4.30;;
9438;SDS011;5176;42.622;25.386;2024-01-11T11:56:18;7.00;;;3.50;;
9438;SDS011;5176;42.622;25.386;2024-01-11T11:58:46;3.97;;;2.90;;
9438;SDS011;5176;42.622;25.386;2024-01-11T12:01:15;10.33;;;7.40;;
9438;SDS011;5176;42.622;25.386;2024-01-11T12:03:43;6.83;;;5.40;;
9438;SDS011;5176;42.622;25.386;2024-01-11T12:06:16;4.60;;;3.20;;
9438;SDS011;5176;42.622;25.386;2024-01-11T12:08:45;2.60;;;2.00;;
9438;SDS011;5176;42.622;25.386;2024-01-11T12:11:14;4.20;;;2.63;;
9438;SDS011;5176;42.622;25.386;2024-01-11T12:13:42;4.40;;;2.80;;
9438;SDS011;5176;42.622;25.386;2024-01-11T12:16:10;3.37;;;2.47;;
9438;SDS011;5176;42.622;25.386;2024-01-11T12:18:38;4.70;;;3.80;;
9438;SDS011;5176;42.622;25.386;2024-01-11T12:21:06;4.93;;;3.33;;
9438;SDS011;5176;42.622;25.386;2024-01-11T12:23:36;3.70;;;2.90;;
9438;SDS011;5176;42.622;25.386;2024-01-11T12:26:05;4.50;;;3.00;;
9438;SDS011;5176;42.622;25.386;2024-01-11T12:28:38;3.20;;;2.90;;
9438;SDS011;5176;42.622;25.386;2024-01-11T12:31:07;4.57;;;2.93;;
9438;SDS011;5176;42.622;25.386;2024-01-11T12:33:34;2.90;;;2.50;;
9438;SDS011;5176;42.622;25.386;2024-01-11T12:36:04;5.27;;;3.43;;
9438;SDS011;5176;42.622;25.386;2024-01-11T12:38:35;2.37;;;2.17;;
9438;SDS011;5176;42.622;25.386;2024-01-11T12:41:03;2.10;;;1.73;;
9438;SDS011;5176;42.622;25.386;2024-01-11T12:43:32;2.87;;;2.40;;
9438;SDS011;5176;42.622;25.386;2024-01-11T12:46:00;2.87;;;2.53;;
9438;SDS011;5176;42.622;25.386;2024-01-11T12:48:28;3.07;;;2.27;;
9438;SDS011;5176;42.622;25.386;2024-01-11T12:50:56;4.13;;;3.60;;
9438;SDS011;5176;42.622;25.386;2024-01-11T12:53:24;5.03;;;3.40;;
9438;SDS011;5176;42.622;25.386;2024-01-11T12:56:03;5.53;;;4.17;;
9438;SDS011;5176;42.622;25.386;2024-01-11T12:58:35;4.97;;;3.67;;
9438;SDS011;5176;42.622;25.386;2024-01-11T13:01:03;7.90;;;5.30;;
9438;SDS011;5176;42.622;25.386;2024-01-11T13:03:32;4.33;;;3.80;;
9438;SDS011;5176;42.622;25.386;2024-01-11T13:06:01;7.67;;;4.47;;
9438;SDS011;5176;42.622;25.386;2024-01-11T13:08:30;5.93;;;3.93;;
9438;SDS011;5176;42.622;25.386;2024-01-11T13:10:57;3.07;;;2.57;;
9438;SDS011;5176;42.622;25.386;2024-01-11T13:13:28;5.90;;;4.87;;
9438;SDS011;5176;42.622;25.386;2024-01-11T13:15:55;3.80;;;3.00;;
9438;SDS011;5176;42.622;25.386;2024-01-11T13:18:23;5.37;;;3.47;;
9438;SDS011;5176;42.622;25.386;2024-01-11T13:20:51;4.03;;;3.10;;
9438;SDS011;5176;42.622;25.386;2024-01-11T13:23:19;10.27;;;8.03;;
9438;SDS011;5176;42.622;25.386;2024-01-11T13:25:47;8.70;;;7.17;;
9438;SDS011;5176;42.622;25.386;2024-01-11T13:28:16;13.10;;;8.70;;
9438;SDS011;5176;42.622;25.386;2024-01-11T13:30:46;8.33;;;5.10;;
9438;SDS011;5176;42.622;25.386;2024-01-11T13:33:14;9.07;;;6.80;;
9438;SDS011;5176;42.622;25.386;2024-01-11T13:35:43;6.80;;;5.63;;
9438;SDS011;5176;42.622;25.386;2024-01-11T13:38:11;12.50;;;9.50;;
9438;SDS011;5176;42.622;25.386;2024-01-11T13:40:38;11.97;;;7.00;;
9438;SDS011;5176;42.622;25.386;2024-01-11T13:43:07;19.53;;;11.23;;
9438;SDS011;5176;42.622;25.386;2024-01-11T13:45:34;21.77;;;18.50;;
9438;SDS011;5176;42.622;25.386;2024-01-11T13:48:04;10.13;;;7.77;;
9438;SDS011;5176;42.622;25.386;2024-01-11T13:50:32;13.27;;;8.53;;
9438;SDS011;5176;42.622;25.386;2024-01-11T13:53:00;14.43;;;9.80;;
9438;SDS011;5176;42.622;25.386;2024-01-11T13:55:27;20.67;;;17.53;;
9438;SDS011;5176;42.622;25.386;2024-01-11T13:58:03;13.90;;;11.67;;
9438;SDS011;5176;42.622;25.386;2024-01-11T14:00:31;10.07;;;7.07;;
9438;SDS011;5176;42.622;25.386;2024-01-11T14:02:58;9.67;;;6.67;;
9438;SDS011;5176;42.622;25.386;2024-01-11T14:05:27;12.90;;;10.10;;
9438;SDS011;5176;42.622;25.386;2024-01-11T14:07:54;11.50;;;8.43;;
9438;SDS011;5176;42.622;25.386;2024-01-11T14:10:24;10.50;;;6.40;;
9438;SDS011;5176;42.622;25.386;2024-01-11T14:12:52;8.50;;;6.97;;
9438;SDS011;5176;42.622;25.386;2024-01-11T14:15:19;6.53;;;5.40;;
9438;SDS011;5176;42.622;25.386;2024-01-11T14:17:47;9.57;;;7.60;;
9438;SDS011;5176;42.622;25.386;2024-01-11T14:20:15;10.07;;;6.63;;
9438;SDS011;5176;42.622;25.386;2024-01-11T14:22:44;15.27;;;10.43;;
9438;SDS011;5176;42.622;25.386;2024-01-11T14:25:14;11.37;;;8.80;;
9438;SDS011;5176;42.622;25.386;2024-01-11T14:27:42;12.70;;;9.17;;
9438;SDS011;5176;42.622;25.386;2024-01-11T14:30:10;13.00;;;9.67;;
9438;SDS011;5176;42.622;25.386;2024-01-11T14:32:39;13.33;;;10.23;;
9438;SDS011;5176;42.622;25.386;2024-01-11T14:35:08;16.17;;;12.60;;
9438;SDS011;5176;42.622;25.386;2024-01-11T14:37:36;30.90;;;21.03;;
9438;SDS011;5176;42.622;25.386;2024-01-11T14:40:07;28.73;;;18.47;;
9438;SDS011;5176;42.622;25.386;2024-01-11T14:42:36;29.50;;;17.40;;
9438;SDS011;5176;42.622;25.386;2024-01-11T14:45:04;29.20;;;18.67;;
9438;SDS011;5176;42.622;25.386;2024-01-11T14:47:32;41.00;;;25.33;;
9438;SDS011;5176;42.622;25.386;2024-01-11T14:49:59;35.20;;;20.67;;
9438;SDS011;5176;42.622;25.386;2024-01-11T14:52:29;23.43;;;15.30;;
9438;SDS011;5176;42.622;25.386;2024-01-11T14:54:57;35.43;;;21.63;;
9438;SDS011;5176;42.622;25.386;2024-01-11T14:57:26;37.73;;;23.27;;